Lester, Pennsylvania
Current Conditions -  °F | °C
As of 1:54 PM on Monday 22 Dec 2014 (Local Time) from KPHL Reporting Station
Overcast Overcast  
Wind Chill: 44°   Ceiling: 4300
Heat Index: 44°   Visibility: 8mi
Dew Point: 33°   Wind: 3mph
Humidity: 65%   Direction: 360°N
Pressure: 30.22"   Gusts: NA
Location:  39.867°N, 75.284°W
Report Text: KPHL 221854Z 36003KT 8SM FEW020 BKN043 OVC090 07/01 A3022 RMK AO2 SLP234 T00670006
Loading
Personal Weather Stations






























Interactive Weather Map New forecast layout! Learn more

10-Day Weather Forecast

Advertisements
Track Severe Weather on mobile